Terminal Aerodrome Forecast
Issued by NWS

Home | Current Version | Previous Version | Text Only | Print | Product List | Glossary On
Versions: 1 2 3 4 5 6 7 8 9 10 11 12 13 14 15 16 17 18
000
FTUS43 KILX 221140
TAFBMI
TAF
KBMI 221140Z 2212/2312 03010KT 1/4SM FG OVC002
     FM221600 02008KT 1 1/2SM BR OVC003
     FM221700 02009KT P6SM OVC008
     FM221900 01011KT P6SM OVC020
     FM230700 35012KT P6SM OVC008=

USA.gov is the U.S. government's official web portal to all federal, state and local government web resources and services.